createdAt,value
2023-09-06T01:10:08.802Z,2.67
2023-09-06T01:12:35.779Z,2.90
2023-09-06T01:15:06.126Z,2.50
2023-09-06T01:17:38.098Z,2.47
2023-09-06T01:23:13.698Z,2.45
2023-09-06T01:25:40.907Z,2.53
2023-09-06T01:37:54.148Z,2.50
2023-09-06T13:05:50.248Z,3.17
2023-09-06T13:08:20.129Z,3.13
2023-09-06T13:10:47.543Z,2.97
2023-09-06T13:13:14.217Z,3.35
2023-09-06T13:15:41.061Z,3.28
2023-09-06T13:18:08.700Z,3.20
2023-09-06T13:20:35.569Z,3.70
2023-09-06T13:23:02.498Z,2.92
2023-09-06T13:25:29.325Z,2.92
2023-09-06T13:27:56.021Z,3.13
2023-09-06T13:30:22.689Z,3.30
2023-09-06T13:32:49.531Z,2.92
2023-09-06T13:35:16.282Z,3.10
2023-09-06T13:37:42.927Z,3.25
2023-09-06T13:40:10.266Z,3.40
2023-09-06T13:42:36.904Z,3.00
2023-09-06T13:45:05.487Z,3.03
2023-09-06T13:47:32.331Z,3.40
2023-09-06T13:49:59.224Z,3.67
2023-09-06T13:52:26.053Z,3.40
2023-09-06T13:54:52.644Z,3.40
2023-09-06T13:57:19.275Z,3.55
2023-09-06T13:59:46.024Z,3.10
2023-09-06T14:02:12.878Z,3.65
2023-09-06T14:04:39.669Z,3.47
2023-09-06T14:07:06.322Z,3.35
2023-09-06T14:09:32.961Z,3.45
2023-09-06T14:11:59.530Z,3.25
2023-09-06T14:14:26.710Z,3.28
2023-09-06T14:16:54.453Z,3.08
2023-09-06T14:19:21.162Z,3.60
2023-09-06T14:21:47.818Z,2.85
2023-09-06T14:24:16.597Z,3.20
2023-09-06T14:26:44.457Z,3.35
2023-09-06T14:29:13.321Z,3.90
2023-09-06T14:34:07.434Z,3.40
2023-09-06T14:36:34.092Z,3.20
2023-09-06T14:39:02.390Z,3.40
2023-09-06T14:41:29.064Z,3.70
2023-09-06T14:43:56.693Z,3.63
2023-09-06T14:46:23.789Z,3.78
2023-09-06T14:48:50.596Z,3.35
2023-09-06T14:51:17.474Z,3.17
2023-09-06T14:53:44.142Z,3.58
2023-09-06T14:56:10.873Z,3.90
2023-09-06T14:58:37.644Z,3.63
2023-09-06T15:01:06.272Z,3.60
2023-09-06T15:03:34.697Z,3.42
2023-09-06T15:06:01.666Z,3.40
2023-09-06T15:08:28.582Z,3.60
2023-09-06T15:10:55.489Z,3.40
2023-09-06T15:13:22.199Z,3.30
2023-09-06T15:15:49.291Z,3.20
2023-09-06T15:18:16.170Z,3.20
2023-09-06T15:20:42.830Z,3.70
2023-09-06T15:23:09.448Z,3.40
2023-09-06T15:25:36.170Z,3.57
2023-09-06T15:28:02.859Z,3.38
2023-09-06T15:30:29.606Z,4.65
2023-09-06T15:32:56.299Z,6.30
2023-09-06T15:35:29.709Z,9.40
2023-09-06T15:38:00.731Z,3.80
2023-09-06T15:40:27.673Z,3.55
2023-09-06T15:42:54.204Z,3.90
2023-09-06T15:45:20.801Z,3.53
2023-09-06T15:47:49.328Z,4.25
2023-09-06T15:50:17.103Z,4.85
2023-09-06T15:52:46.544Z,5.38
2023-09-06T15:55:14.015Z,4.10
2023-09-06T15:57:40.706Z,3.63
2023-09-06T16:00:24.369Z,4.13
2023-09-06T16:02:57.631Z,4.53
2023-09-06T16:05:24.552Z,3.70
2023-09-06T16:07:51.101Z,3.57
2023-09-06T16:10:17.903Z,4.15
2023-09-06T16:12:48.617Z,6.50
2023-09-06T16:15:20.668Z,4.90
2023-09-06T16:17:47.376Z,5.15
2023-09-06T16:20:14.171Z,3.97
2023-09-06T16:22:42.377Z,4.50
2023-09-06T16:25:11.323Z,3.83
2023-09-06T16:27:38.598Z,3.70
2023-09-06T16:30:07.351Z,4.20
2023-09-06T16:32:34.304Z,3.60
2023-09-06T16:35:08.899Z,3.55
2023-09-06T16:37:39.850Z,3.58
2023-09-06T16:40:12.063Z,3.38
2023-09-06T16:42:41.070Z,3.40
2023-09-06T16:45:08.604Z,3.25
2023-09-06T16:47:35.246Z,3.33
2023-09-06T16:50:02.391Z,3.08
2023-09-06T16:52:29.030Z,3.00
2023-09-06T16:54:57.090Z,3.53
2023-09-06T16:57:24.949Z,3.03
2023-09-06T16:59:51.491Z,3.25
2023-09-06T17:02:18.195Z,3.30
2023-09-06T17:04:44.790Z,3.00
2023-09-06T17:07:11.396Z,2.90
2023-09-06T17:09:37.926Z,3.45
2023-09-06T17:12:04.624Z,3.30
2023-09-06T17:14:32.231Z,3.00
2023-09-06T17:16:58.920Z,2.78
2023-09-06T17:19:26.592Z,2.92
2023-09-06T17:21:53.207Z,3.20
2023-09-06T17:24:19.789Z,3.03
2023-09-06T17:26:49.079Z,3.67
2023-09-06T17:29:16.089Z,3.10
2023-09-06T17:31:43.374Z,3.20
2023-09-06T17:34:13.196Z,3.67
2023-09-06T17:36:40.631Z,3.80
2023-09-06T17:39:10.806Z,3.33
2023-09-06T17:41:39.085Z,3.30
2023-09-06T17:44:07.783Z,3.10
2023-09-06T17:46:35.757Z,3.42
2023-09-06T17:49:09.960Z,3.20
2023-09-06T17:51:37.889Z,3.08
2023-09-06T17:54:04.877Z,3.83
2023-09-06T17:56:33.048Z,3.95
2023-09-06T17:58:59.780Z,4.00
2023-09-06T18:01:27.278Z,3.90
2023-09-06T18:03:58.666Z,3.95
2023-09-06T18:06:27.155Z,4.07
2023-09-06T18:08:59.517Z,4.05
2023-09-06T18:11:26.710Z,3.95
2023-09-06T18:13:53.609Z,3.85
2023-09-06T18:16:21.024Z,3.80
2023-09-06T18:18:49.289Z,4.03
2023-09-06T18:21:17.769Z,3.95
2023-09-06T18:23:46.082Z,3.75
2023-09-06T18:26:13.291Z,3.53
2023-09-06T18:28:40.374Z,3.85
2023-09-06T18:31:07.107Z,4.20
2023-09-06T18:33:33.743Z,4.30
2023-09-06T18:36:00.382Z,3.75
2023-09-06T18:38:28.056Z,4.43
2023-09-06T18:40:57.286Z,4.25
2023-09-06T18:43:24.615Z,4.18
2023-09-06T18:45:51.881Z,4.05
2023-09-06T18:48:21.399Z,3.90
2023-09-06T18:50:48.840Z,4.00
2023-09-06T18:53:15.531Z,4.18
2023-09-06T18:55:45.039Z,4.13
2023-09-06T18:58:12.778Z,4.28
2023-09-06T19:00:40.849Z,5.20
2023-09-06T19:03:12.793Z,5.60
2023-09-06T19:05:41.417Z,5.80
2023-09-06T19:08:15.669Z,6.00
2023-09-06T19:10:43.719Z,5.90
2023-09-06T19:13:11.725Z,5.50
2023-09-06T19:15:39.620Z,5.68
2023-09-06T19:18:07.581Z,4.82
2023-09-06T19:20:37.511Z,5.65
2023-09-06T19:23:07.594Z,5.47
2023-09-06T19:25:38.901Z,6.00
2023-09-06T19:28:06.428Z,5.03
2023-09-06T19:30:33.550Z,5.15
2023-09-06T19:33:00.233Z,4.95
2023-09-06T19:35:27.092Z,5.00
2023-09-06T19:37:53.681Z,4.90
2023-09-06T19:40:20.299Z,4.95
2023-09-06T19:42:46.874Z,4.30
2023-09-06T19:45:13.548Z,4.97
2023-09-06T19:47:40.295Z,4.00
2023-09-06T19:50:08.088Z,4.43
2023-09-06T19:55:02.365Z,4.38
2023-09-06T19:57:31.122Z,4.35
2023-09-06T19:59:58.600Z,4.60
2023-09-06T20:02:25.439Z,4.55
2023-09-06T20:04:52.383Z,4.55
2023-09-06T20:07:19.209Z,4.75
2023-09-06T20:09:45.795Z,4.13
2023-09-06T20:12:12.416Z,3.90
2023-09-06T20:14:39.043Z,4.43
2023-09-06T20:17:05.698Z,4.28
2023-09-06T20:19:32.351Z,4.70
2023-09-06T20:21:59.051Z,4.43
2023-09-06T20:24:25.652Z,3.83
2023-09-06T20:26:52.281Z,4.18
2023-09-06T20:29:19.133Z,4.22
2023-09-06T20:31:46.068Z,4.38
2023-09-06T20:34:13.494Z,4.30
2023-09-06T20:36:40.165Z,4.43
2023-09-06T20:39:07.959Z,3.88
2023-09-06T20:41:36.070Z,4.13
2023-09-06T20:44:02.684Z,4.28
2023-09-06T20:46:29.371Z,4.10
2023-09-06T20:48:56.063Z,3.90
2023-09-06T20:51:22.632Z,3.67
2023-09-06T20:53:50.351Z,3.75
2023-09-06T20:56:17.331Z,4.13
2023-09-06T20:58:43.874Z,4.10
2023-09-06T21:01:11.613Z,4.10
2023-09-06T21:03:38.469Z,4.10
2023-09-06T21:06:05.129Z,4.10
2023-09-06T21:08:31.948Z,3.88
2023-09-06T21:10:58.837Z,4.25
2023-09-06T21:13:26.509Z,4.30
2023-09-06T21:15:53.517Z,4.20
2023-09-06T21:18:20.570Z,3.80
2023-09-06T21:20:47.276Z,4.25
2023-09-06T21:23:13.865Z,4.20
2023-09-06T21:25:42.442Z,3.60
2023-09-06T21:28:09.211Z,3.83
2023-09-06T21:30:41.365Z,3.88
2023-09-06T21:33:09.557Z,3.97
2023-09-06T21:35:41.897Z,3.78
2023-09-06T21:38:09.076Z,4.30
2023-09-06T21:40:40.390Z,3.95
2023-09-06T21:43:16.875Z,4.22
2023-09-06T21:45:44.172Z,4.07
2023-09-06T21:48:11.713Z,4.30
2023-09-06T21:50:40.910Z,4.15
2023-09-06T21:55:34.836Z,4.45
2023-09-06T21:58:09.735Z,4.30
2023-09-06T22:00:37.799Z,3.72
2023-09-06T22:03:05.002Z,3.88
2023-09-06T22:05:31.799Z,3.65
2023-09-06T22:07:58.334Z,3.78
2023-09-06T22:10:25.054Z,4.07
2023-09-06T22:12:51.919Z,3.55
2023-09-06T22:15:18.803Z,3.85
2023-09-06T22:17:45.583Z,3.58
2023-09-06T22:20:12.601Z,3.65
2023-09-06T22:22:40.525Z,4.00
2023-09-06T22:25:07.822Z,3.70
2023-09-06T22:27:34.875Z,3.63
